Weather at Mangole Airport, Falabisahaya

Public forecast

Using degrees Celsius for public forecast. Weather courtesy of forecast.io.

Closest aviation weather report (METAR) to Mangole Airport, Falabisahaya

Closest report is Pattimura International Airport, 194.5 nm (360.2 km) SE.

2024/06/19 03:00 (retrieved 23 minutes ago)

WAPP 190300Z 19008KT 150V220 8000 BKN016 27/23 Q1010 RERA NOSIG

Closest aviation forecast (TAF) to Mangole Airport, Falabisahaya

Forecast is more than 6 hours old.

Closest forecast is Toraja Airport, 344.2 nm (637.5 km) WSW.

2024/06/18 18:50 (retrieved 9 hours ago)

TAF WAFB 181700Z 1818/1906 00000KT 7000 SCT017 TEMPO 1819/1822 2000 BR BKN016